createdAt,value
2022-09-03T00:02:21.575Z,158691.13
2022-09-03T00:04:59.778Z,158699.13
2022-09-03T00:08:06.338Z,158692.44
2022-09-03T00:10:55.582Z,158677.81
2022-09-03T00:13:28.083Z,158689.75
2022-09-03T00:15:57.485Z,158703.06
2022-09-03T00:18:30.083Z,158701.75
2022-09-03T00:21:08.780Z,158692.44
2022-09-03T00:23:39.507Z,158696.41
2022-09-03T00:26:12.612Z,158700.44
2022-09-03T00:28:48.062Z,158699.13
2022-09-03T00:31:20.046Z,158687.09
2022-09-03T00:33:48.703Z,158683.09
2022-09-03T00:36:20.405Z,158683.09
2022-09-03T00:38:47.757Z,158679.13
2022-09-03T00:41:30.056Z,158673.78
2022-09-03T00:44:08.209Z,158679.13
2022-09-03T00:47:00.419Z,158675.09
2022-09-03T00:49:54.802Z,158665.78
2022-09-03T00:52:41.580Z,158664.47
2022-09-03T00:55:39.588Z,158660.44
2022-09-03T00:58:26.598Z,158653.78
2022-09-03T01:00:53.919Z,158633.81
2022-09-03T01:03:24.277Z,158641.84
2022-09-03T01:06:13.562Z,158631.16
2022-09-03T01:09:04.210Z,158623.16
2022-09-03T01:11:47.334Z,158620.47
2022-09-03T01:14:17.769Z,158615.19
2022-09-03T01:17:10.316Z,158601.84
2022-09-03T01:20:15.806Z,158601.84
2022-09-03T01:23:21.696Z,158597.84
2022-09-03T01:25:53.445Z,158604.50
2022-09-03T01:28:55.490Z,158600.53
2022-09-03T01:31:42.505Z,158592.50
2022-09-03T01:34:47.274Z,158584.50
2022-09-03T01:37:52.949Z,158580.56
2022-09-03T01:40:43.420Z,158579.22
2022-09-03T01:43:15.971Z,158576.53
2022-09-03T01:46:18.771Z,158568.56
2022-09-03T01:49:25.411Z,158548.56
2022-09-03T01:52:21.287Z,158547.25
2022-09-03T01:55:01.478Z,158531.28
2022-09-03T01:57:56.452Z,158524.63
2022-09-03T02:00:25.498Z,158509.97
2022-09-03T02:02:53.336Z,158512.63
2022-09-03T02:05:30.093Z,158507.28
2022-09-03T02:08:08.298Z,158505.94
2022-09-03T02:11:03.042Z,158500.63
2022-09-03T02:13:46.423Z,158493.94
2022-09-03T02:16:20.560Z,158508.66
2022-09-03T02:19:10.971Z,158491.31
2022-09-03T02:21:48.777Z,158474.03
2022-09-03T02:24:16.351Z,158476.66
2022-09-03T02:26:43.946Z,158467.38
2022-09-03T02:29:11.349Z,158459.38
2022-09-03T02:31:39.061Z,158455.38
2022-09-03T02:34:06.485Z,158440.72
2022-09-03T02:36:36.554Z,158439.41
2022-09-03T02:39:05.153Z,158434.06
2022-09-03T02:41:32.803Z,158435.38
2022-09-03T02:44:25.870Z,158439.41
2022-09-03T02:47:05.142Z,158435.38
2022-09-03T02:49:32.846Z,158420.75
2022-09-03T02:52:06.506Z,158422.06
2022-09-03T02:54:36.423Z,158410.13
2022-09-03T02:57:04.157Z,158402.09
2022-09-03T02:59:31.561Z,158392.78
2022-09-03T03:02:01.209Z,158375.50
2022-09-03T03:04:30.435Z,158372.81
2022-09-03T03:06:58.343Z,158360.88
2022-09-03T03:09:25.935Z,158354.22
2022-09-03T03:11:55.528Z,158347.56
2022-09-03T03:14:23.145Z,158334.25
2022-09-03T03:16:51.555Z,158326.25
2022-09-03T03:19:19.709Z,158311.63
2022-09-03T03:21:47.027Z,158291.66
2022-09-03T03:24:14.425Z,158266.34
2022-09-03T03:26:42.112Z,158245.06
2022-09-03T03:29:15.069Z,158243.75
2022-09-03T03:31:42.357Z,158243.75
2022-09-03T03:34:09.612Z,158233.06
2022-09-03T03:36:36.848Z,158222.44
2022-09-03T03:39:04.555Z,158213.09
2022-09-03T03:41:36.219Z,158211.78
2022-09-03T03:44:05.876Z,158207.81
2022-09-03T03:46:42.438Z,158198.47
2022-09-03T03:49:11.118Z,158179.88
2022-09-03T03:51:39.187Z,158129.28
2022-09-03T03:54:06.653Z,158142.59
2022-09-03T03:56:34.724Z,158123.94
2022-09-03T03:59:02.783Z,158115.97
2022-09-03T04:01:30.622Z,158115.97
2022-09-03T04:04:00.048Z,158121.25
2022-09-03T04:06:28.923Z,158125.28
2022-09-03T04:08:56.324Z,158134.56
2022-09-03T04:11:24.894Z,158138.59
2022-09-03T04:13:52.860Z,158143.97
2022-09-03T04:16:27.386Z,158157.28
2022-09-03T04:18:55.803Z,158173.22
2022-09-03T04:21:28.650Z,158191.81
2022-09-03T04:23:57.407Z,158214.47
2022-09-03T04:26:28.700Z,158239.72
2022-09-03T04:28:55.894Z,158274.31
2022-09-03T04:31:23.458Z,158306.28
2022-09-03T04:33:51.483Z,158352.84
2022-09-03T04:36:23.310Z,158431.41
2022-09-03T04:38:54.241Z,158523.28
2022-09-03T04:41:26.344Z,158613.84
2022-09-03T04:43:55.077Z,158721.75
2022-09-03T04:46:26.249Z,158803.06
2022-09-03T04:48:55.080Z,158907.03
2022-09-03T04:51:27.294Z,159044.38
2022-09-03T04:54:00.305Z,159165.75
2022-09-03T04:56:28.612Z,159267.13
2022-09-03T04:58:58.181Z,159337.91
2022-09-03T05:01:29.595Z,159431.38
2022-09-03T05:03:58.261Z,159500.81
2022-09-03T05:06:26.522Z,159536.84
2022-09-03T05:08:54.684Z,159576.88
2022-09-03T05:11:23.440Z,159642.34
2022-09-03T05:13:52.754Z,159655.66
2022-09-03T05:16:20.934Z,159734.56
2022-09-03T05:18:48.896Z,159757.25
2022-09-03T05:21:18.435Z,159833.44
2022-09-03T05:23:47.598Z,159824.03
2022-09-03T05:26:17.879Z,159880.19
2022-09-03T05:28:45.667Z,159868.19
2022-09-03T05:31:18.479Z,159890.91
2022-09-03T05:33:51.458Z,159957.69
2022-09-03T05:36:25.754Z,160056.69
2022-09-03T05:38:56.289Z,160143.63
2022-09-03T05:41:26.691Z,160231.88
2022-09-03T05:43:56.323Z,160300.13
2022-09-03T05:46:30.234Z,160346.91
2022-09-03T05:49:02.212Z,160389.78
2022-09-03T05:51:31.270Z,160404.53
2022-09-03T05:53:58.917Z,160416.56
2022-09-03T05:56:29.900Z,160431.28
2022-09-03T05:59:03.204Z,160405.88
2022-09-03T06:01:31.290Z,160413.91
2022-09-03T06:04:00.952Z,160397.84
2022-09-03T06:06:30.103Z,160456.72
2022-09-03T06:08:59.644Z,160474.09
2022-09-03T06:11:29.681Z,160470.13
2022-09-03T06:13:58.002Z,160454.06
2022-09-03T06:16:29.003Z,160508.91
2022-09-03T06:19:00.774Z,160561.13
2022-09-03T06:21:28.438Z,160595.94
2022-09-03T06:23:58.425Z,160617.38
2022-09-03T06:26:29.509Z,160700.41
2022-09-03T06:28:57.670Z,160818.28
2022-09-03T06:31:25.907Z,160898.66
2022-09-03T06:33:55.082Z,160925.44
2022-09-03T06:36:24.443Z,160969.75
2022-09-03T06:38:53.428Z,161034.09
2022-09-03T06:41:26.493Z,161046.09
2022-09-03T06:44:04.405Z,161126.56
2022-09-03T06:46:35.111Z,161172.13
2022-09-03T06:49:02.731Z,161225.78
2022-09-03T06:51:32.197Z,161247.28
2022-09-03T06:54:07.899Z,161295.56
2022-09-03T06:56:40.197Z,161394.81
2022-09-03T06:59:13.283Z,161457.81
2022-09-03T07:01:44.052Z,161431.03
2022-09-03T07:04:14.066Z,161406.84
2022-09-03T07:06:42.870Z,161436.34
2022-09-03T07:09:12.062Z,161437.72
2022-09-03T07:11:47.729Z,161455.16
2022-09-03T07:14:20.017Z,161494.13
2022-09-03T07:16:48.956Z,161510.22
2022-09-03T07:19:16.856Z,161494.13
2022-09-03T07:21:49.253Z,161511.53
2022-09-03T07:24:19.880Z,161592.03
2022-09-03T07:26:47.289Z,161648.41
2022-09-03T07:29:16.114Z,161716.88
2022-09-03T07:31:44.421Z,161777.34
2022-09-03T07:34:13.356Z,161757.22
2022-09-03T07:36:43.264Z,161696.72
2022-09-03T07:39:12.803Z,161759.88
2022-09-03T07:41:42.871Z,161882.06
2022-09-03T07:44:10.458Z,161918.31
2022-09-03T07:46:38.946Z,161908.91
2022-09-03T07:49:06.833Z,161891.47
2022-09-03T07:51:36.549Z,161942.50
2022-09-03T07:54:07.816Z,161988.19
2022-09-03T07:56:36.113Z,162032.56
2022-09-03T07:59:04.664Z,161977.47
2022-09-03T08:01:33.460Z,161982.88
2022-09-03T08:04:02.951Z,161985.53
2022-09-03T08:06:31.400Z,162002.97
2022-09-03T08:09:05.015Z,162059.38
2022-09-03T08:11:36.005Z,162064.78
2022-09-03T08:14:06.956Z,162066.09
2022-09-03T08:16:36.963Z,162043.28
2022-09-03T08:19:05.165Z,162076.88
2022-09-03T08:21:32.992Z,162109.09
2022-09-03T08:24:03.125Z,162127.91
2022-09-03T08:26:33.614Z,162157.47
2022-09-03T08:29:01.235Z,162121.19
2022-09-03T08:31:29.381Z,162113.16
2022-09-03T08:33:59.225Z,162191.13
2022-09-03T08:36:30.178Z,162195.13
2022-09-03T08:39:04.163Z,162209.97
2022-09-03T08:41:42.693Z,162211.28
2022-09-03T08:44:18.766Z,162209.97
2022-09-03T08:46:51.862Z,162146.75
2022-09-03T08:49:29.237Z,162220.69
2022-09-03T08:51:57.677Z,162290.56
2022-09-03T08:54:28.133Z,162381.97
2022-09-03T08:56:56.221Z,162423.72
2022-09-03T08:59:24.647Z,162419.66
2022-09-03T09:02:25.567Z,162330.91
2022-09-03T09:05:14.899Z,162265.03
2022-09-03T09:08:03.184Z,162200.53
2022-09-03T09:10:42.148Z,162170.91
2022-09-03T09:13:31.259Z,162153.47
2022-09-03T09:16:32.462Z,162199.19
2022-09-03T09:18:59.830Z,162286.53
2022-09-03T09:21:49.631Z,162291.91
2022-09-03T09:24:26.519Z,162205.91
2022-09-03T09:27:00.523Z,162145.38
2022-09-03T09:29:32.602Z,162153.47
2022-09-03T09:32:00.175Z,162169.59
2022-09-03T09:34:28.052Z,162037.91
2022-09-03T09:36:56.493Z,161985.53
2022-09-03T09:39:24.250Z,161966.72
2022-09-03T09:42:13.400Z,161994.91
2022-09-03T09:44:43.451Z,162007.03
2022-09-03T09:47:14.664Z,161982.88
2022-09-03T09:49:57.059Z,161902.19
2022-09-03T09:52:28.738Z,161888.78
2022-09-03T09:55:09.324Z,161888.78
2022-09-03T09:57:38.075Z,161925.03
2022-09-03T10:00:12.422Z,161988.19
2022-09-03T10:02:57.058Z,162016.41
2022-09-03T10:05:37.825Z,162009.69
2022-09-03T10:08:25.259Z,161978.81
2022-09-03T10:10:52.897Z,161955.94
2022-09-03T10:13:33.562Z,161926.41
2022-09-03T10:16:27.709Z,161919.69
2022-09-03T10:19:10.548Z,161943.84
2022-09-03T10:21:54.520Z,161915.63
2022-09-03T10:24:39.669Z,161978.81
2022-09-03T10:27:12.651Z,162036.56
2022-09-03T10:29:40.940Z,162084.94
2022-09-03T10:32:23.459Z,162074.16
2022-09-03T10:35:28.831Z,162137.31
2022-09-03T10:38:22.431Z,162127.91
2022-09-03T10:41:28.976Z,162063.44
2022-09-03T10:43:59.375Z,162087.59
2022-09-03T10:46:59.701Z,162106.44
2022-09-03T10:49:36.990Z,162083.59
2022-09-03T10:52:37.136Z,162040.63
2022-09-03T10:55:18.787Z,161942.50
2022-09-03T10:57:57.069Z,161883.44
2022-09-03T11:00:26.243Z,161914.31
2022-09-03T11:03:31.013Z,161923.69
2022-09-03T11:06:07.683Z,161994.91
2022-09-03T11:08:43.633Z,162028.50
2022-09-03T11:11:15.521Z,162028.50
2022-09-03T11:14:15.900Z,162063.44
2022-09-03T11:16:46.975Z,162074.16
2022-09-03T11:19:17.950Z,162111.81
2022-09-03T11:21:46.524Z,162074.16
2022-09-03T11:24:22.352Z,162045.94
2022-09-03T11:27:12.849Z,162090.31
2022-09-03T11:29:48.007Z,162137.31
2022-09-03T11:32:25.575Z,162111.81
2022-09-03T11:34:54.854Z,162193.78
2022-09-03T11:37:30.446Z,162199.19
2022-09-03T11:40:08.092Z,162087.59
2022-09-03T11:42:38.074Z,162071.50
2022-09-03T11:45:24.079Z,162070.16
2022-09-03T11:47:52.022Z,162040.63
2022-09-03T11:50:28.576Z,161993.59
2022-09-03T11:53:13.605Z,162033.91
2022-09-03T11:56:00.949Z,162086.28
2022-09-03T11:58:40.734Z,162086.28
2022-09-03T12:01:16.530Z,162047.34
2022-09-03T12:03:48.005Z,161974.75
2022-09-03T12:06:33.715Z,162043.28
2022-09-03T12:09:07.933Z,162082.25
2022-09-03T12:11:36.044Z,162105.09
2022-09-03T12:14:30.504Z,162150.75
2022-09-03T12:17:35.607Z,162226.06
2022-09-03T12:20:04.617Z,162246.22
2022-09-03T12:22:38.870Z,162318.81
2022-09-03T12:25:15.123Z,162351.03
2022-09-03T12:27:44.766Z,162302.69
2022-09-03T12:30:18.695Z,162235.47
2022-09-03T12:32:46.662Z,162184.41
2022-09-03T12:38:07.022Z,162192.47
2022-09-03T12:43:38.925Z,162187.06
2022-09-03T12:46:14.766Z,162227.41
2022-09-03T12:52:15.885Z,162243.53
2022-09-03T12:54:50.273Z,162295.97
2022-09-03T12:57:22.040Z,162289.25
2022-09-03T12:59:49.936Z,162277.13
2022-09-03T13:02:22.722Z,162232.78
2022-09-03T13:04:51.855Z,162302.69
2022-09-03T13:07:37.391Z,162298.63
2022-09-03T13:10:21.232Z,162301.31
2022-09-03T13:12:53.181Z,162278.47
2022-09-03T13:15:25.248Z,162261.00
2022-09-03T13:18:09.441Z,162266.41
2022-09-03T13:20:52.162Z,162269.06
2022-09-03T13:23:22.323Z,162242.19
2022-09-03T13:26:10.733Z,162232.78
2022-09-03T13:29:16.873Z,162244.91
2022-09-03T13:31:48.597Z,162285.19
2022-09-03T13:34:36.460Z,162332.25
2022-09-03T13:37:28.656Z,162308.03
2022-09-03T13:40:00.302Z,162239.50
2022-09-03T13:42:31.498Z,162232.78
2022-09-03T13:44:58.979Z,162254.28
2022-09-03T13:47:29.929Z,162250.25
2022-09-03T13:50:24.278Z,162255.63
2022-09-03T13:53:10.725Z,162239.50
2022-09-03T13:55:49.142Z,162255.63
2022-09-03T13:58:31.676Z,162278.47
2022-09-03T14:00:59.677Z,162278.47
2022-09-03T14:03:39.862Z,162251.56
2022-09-03T14:06:26.652Z,162281.19
2022-09-03T14:09:21.551Z,162281.19
2022-09-03T14:12:06.566Z,162248.91
2022-09-03T14:14:59.535Z,162238.19
2022-09-03T14:17:52.346Z,162234.13
2022-09-03T14:20:24.290Z,162223.34
2022-09-03T14:23:04.101Z,162179.03
2022-09-03T14:25:33.084Z,162243.53
2022-09-03T14:28:32.180Z,162200.53
2022-09-03T14:31:25.374Z,162150.75
2022-09-03T14:34:00.143Z,162197.84
2022-09-03T14:36:56.479Z,162199.19
2022-09-03T14:39:45.679Z,162189.78
2022-09-03T14:42:38.380Z,162197.84
2022-09-03T14:45:08.864Z,162162.84
2022-09-03T14:47:58.850Z,162185.75
2022-09-03T14:50:32.918Z,162158.81
2022-09-03T14:53:25.181Z,162141.34
2022-09-03T14:56:05.579Z,162106.44
2022-09-03T14:59:01.096Z,162107.75
2022-09-03T15:01:38.825Z,162084.94
2022-09-03T15:04:34.063Z,162074.16
2022-09-03T15:07:17.605Z,162092.97
2022-09-03T15:09:57.593Z,162078.22
2022-09-03T15:12:28.055Z,162059.38
2022-09-03T15:14:57.482Z,161998.97
2022-09-03T15:17:46.026Z,161985.53
2022-09-03T15:20:19.428Z,161935.78
2022-09-03T15:23:05.810Z,161930.41
2022-09-03T15:26:08.678Z,161892.81
2022-09-03T15:29:09.887Z,161861.94
2022-09-03T15:32:26.274Z,161887.44
2022-09-03T15:35:04.551Z,161883.44
2022-09-03T15:37:53.112Z,161923.69
2022-09-03T15:40:32.882Z,161896.81
2022-09-03T15:43:22.950Z,161861.94
2022-09-03T15:46:26.514Z,161802.84
2022-09-03T15:49:03.024Z,161794.78
2022-09-03T15:51:37.401Z,161797.47
2022-09-03T15:54:16.262Z,161719.53
2022-09-03T15:56:52.763Z,161726.25
2022-09-03T15:59:31.842Z,161720.94
2022-09-03T16:02:11.244Z,161769.25
2022-09-03T16:05:06.547Z,161746.44
2022-09-03T16:07:49.681Z,161755.88
2022-09-03T16:10:26.840Z,161774.66
2022-09-03T16:13:06.835Z,161785.41
2022-09-03T16:15:44.360Z,161798.84
2022-09-03T16:18:33.096Z,161773.31
2022-09-03T16:21:07.381Z,161777.34
2022-09-03T16:23:43.471Z,161759.88
2022-09-03T16:26:18.958Z,161757.22
2022-09-03T16:28:54.300Z,161775.97
2022-09-03T16:31:44.127Z,161767.94
2022-09-03T16:34:56.230Z,161726.25
2022-09-03T16:37:27.355Z,161708.81
2022-09-03T16:40:27.806Z,161683.31
2022-09-03T16:43:00.025Z,161656.50
2022-09-03T16:45:52.027Z,161624.25
2022-09-03T16:48:30.854Z,161590.69
2022-09-03T16:51:21.398Z,161569.25
2022-09-03T16:54:20.321Z,161541.06
2022-09-03T16:57:10.148Z,161510.22
2022-09-03T16:59:47.541Z,161468.56
2022-09-03T17:02:41.549Z,161420.25
2022-09-03T17:05:13.175Z,161401.50
2022-09-03T17:08:06.128Z,161335.75
2022-09-03T17:10:40.479Z,161251.28
2022-09-03T17:13:45.023Z,161156.03
2022-09-03T17:16:49.828Z,161093.03
2022-09-03T17:19:39.910Z,161055.53
2022-09-03T17:22:28.991Z,161040.78
2022-09-03T17:25:05.421Z,161007.28
2022-09-03T17:27:47.572Z,160933.47
2022-09-03T17:31:01.220Z,160869.19
2022-09-03T17:33:50.448Z,160853.13
2022-09-03T17:36:22.293Z,160794.19
2022-09-03T17:39:25.594Z,160747.28
2022-09-03T17:42:01.875Z,160685.69
2022-09-03T17:44:41.806Z,160630.75
2022-09-03T17:47:37.381Z,160603.97
2022-09-03T17:50:11.022Z,160579.84
2022-09-03T17:52:58.312Z,160535.69
2022-09-03T17:55:28.841Z,160494.19
2022-09-03T17:58:30.830Z,160440.69
2022-09-03T18:01:10.602Z,160420.59
2022-09-03T18:03:59.532Z,160379.06
2022-09-03T18:06:28.666Z,160341.59
2022-09-03T18:08:55.872Z,160285.41
2022-09-03T18:11:47.192Z,160239.91
2022-09-03T18:14:34.485Z,160197.09
2022-09-03T18:17:10.063Z,160159.66
2022-09-03T18:20:13.294Z,160124.88
2022-09-03T18:23:37.066Z,160087.47
2022-09-03T18:26:27.124Z,160056.69
2022-09-03T18:29:20.470Z,160020.53
2022-09-03T18:32:06.697Z,159993.78
2022-09-03T18:34:54.786Z,159951.00
2022-09-03T18:37:43.483Z,159914.94
2022-09-03T18:40:38.312Z,159888.19
2022-09-03T18:43:33.713Z,159864.16
2022-09-03T18:49:47.126Z,159806.69
2022-09-03T18:52:44.727Z,159779.97
2022-09-03T18:55:39.391Z,159754.59
2022-09-03T18:58:55.718Z,159729.22
2022-09-03T19:01:54.422Z,159689.13
2022-09-03T19:05:25.280Z,159646.31
2022-09-03T19:08:20.850Z,159635.66
2022-09-03T19:11:28.185Z,159616.94
2022-09-03T19:14:19.118Z,159587.56
2022-09-03T19:17:27.134Z,159566.22
2022-09-03T19:20:46.262Z,159544.84
2022-09-03T19:23:33.019Z,159512.78
2022-09-03T19:26:26.892Z,159500.81
2022-09-03T19:29:13.740Z,159482.09
2022-09-03T19:32:05.178Z,159450.03
2022-09-03T19:34:56.962Z,159435.34
2022-09-03T19:38:02.073Z,159407.31
2022-09-03T19:41:06.734Z,159395.34
2022-09-03T19:43:57.800Z,159373.97
2022-09-03T19:46:53.159Z,159352.56
2022-09-03T19:50:15.586Z,159333.94
2022-09-03T19:53:13.166Z,159308.53
2022-09-03T19:56:09.183Z,159272.53
2022-09-03T19:58:58.819Z,159247.16
2022-09-03T20:01:52.034Z,159232.44
2022-09-03T20:04:39.945Z,159203.09
2022-09-03T20:07:28.984Z,159183.06
2022-09-03T20:10:17.150Z,159143.09
2022-09-03T20:12:49.536Z,159155.06
2022-09-03T20:15:17.145Z,159147.06
2022-09-03T20:18:09.693Z,159132.38
2022-09-03T20:20:49.466Z,159129.75
2022-09-03T20:23:47.761Z,159115.06
2022-09-03T20:26:27.868Z,159097.69
2022-09-03T20:29:14.185Z,159065.72
2022-09-03T20:31:54.679Z,159048.34
2022-09-03T20:34:53.415Z,159016.38
2022-09-03T20:37:59.478Z,159021.69
2022-09-03T20:40:32.699Z,159027.03
2022-09-03T20:43:24.856Z,159033.69
2022-09-03T20:46:30.498Z,159040.38
2022-09-03T20:49:22.769Z,159035.03
2022-09-03T20:51:56.404Z,159029.72
2022-09-03T20:54:33.803Z,159027.03
2022-09-03T20:57:14.558Z,159012.38
2022-09-03T20:59:57.032Z,158989.69
2022-09-03T21:03:02.393Z,158979.00
2022-09-03T21:05:55.260Z,158963.03
2022-09-03T21:09:01.337Z,158977.69
2022-09-03T21:11:56.412Z,158972.34
2022-09-03T21:14:52.497Z,158999.03
2022-09-03T21:17:42.139Z,159016.38
2022-09-03T21:20:31.403Z,159016.38
2022-09-03T21:23:17.541Z,159021.69
2022-09-03T21:26:05.578Z,159023.06
2022-09-03T21:28:40.501Z,159045.72
2022-09-03T21:31:21.656Z,159060.38
2022-09-03T21:33:57.287Z,159085.75
2022-09-03T21:36:32.237Z,159109.72
2022-09-03T21:39:16.382Z,159123.06
2022-09-03T21:41:56.303Z,159145.72
2022-09-03T21:44:55.790Z,159165.75
2022-09-03T21:47:25.144Z,159181.75
2022-09-03T21:50:01.525Z,159183.06
2022-09-03T21:52:44.823Z,159165.75
2022-09-03T21:55:27.039Z,159177.78
2022-09-03T21:58:12.912Z,159173.75
2022-09-03T22:00:40.667Z,159160.41
2022-09-03T22:03:10.764Z,159161.72
2022-09-03T22:05:53.348Z,159128.41
2022-09-03T22:08:45.394Z,159145.72
2022-09-03T22:11:21.513Z,159169.78
2022-09-03T22:14:11.931Z,159192.44
2022-09-03T22:16:54.262Z,159197.78
2022-09-03T22:19:22.195Z,159195.09
2022-09-03T22:22:02.436Z,159181.75
2022-09-03T22:24:45.334Z,159165.75
2022-09-03T22:27:35.661Z,159161.72
2022-09-03T22:30:06.456Z,159157.75
2022-09-03T22:33:01.011Z,159140.38
2022-09-03T22:35:37.726Z,159143.09
2022-09-03T22:38:24.631Z,159147.06
2022-09-03T22:41:11.049Z,159157.75
2022-09-03T22:43:53.536Z,159163.09
2022-09-03T22:46:23.452Z,159157.75
2022-09-03T22:49:09.426Z,159172.41
2022-09-03T22:51:53.750Z,159141.75
2022-09-03T22:54:23.985Z,159124.38
2022-09-03T22:56:53.219Z,159093.72
2022-09-03T22:59:33.642Z,159103.06
2022-09-03T23:02:24.084Z,159091.03
2022-09-03T23:04:59.535Z,159099.03
2022-09-03T23:07:54.394Z,159103.06
2022-09-03T23:10:26.891Z,159088.38
2022-09-03T23:13:17.232Z,159075.03
2022-09-03T23:15:57.956Z,159067.03
2022-09-03T23:18:27.260Z,159080.38
2022-09-03T23:21:34.936Z,159072.41
2022-09-03T23:24:08.312Z,159048.34
2022-09-03T23:26:36.727Z,159047.03
2022-09-03T23:29:24.218Z,159029.72
2022-09-03T23:31:53.272Z,159001.72
2022-09-03T23:34:21.115Z,158996.38
2022-09-03T23:37:16.178Z,158983.03
2022-09-03T23:39:52.097Z,158963.03
2022-09-03T23:42:46.220Z,158940.38
2022-09-03T23:45:51.531Z,158941.69
2022-09-03T23:48:43.684Z,158924.38
2022-09-03T23:51:35.920Z,158917.72
2022-09-03T23:54:30.320Z,158917.72
2022-09-03T23:57:27.064Z,158907.03
